Pagina principală
METAR-TAF:

METAR-TAF

Aeroporturi :

Cobija, Bolivia

Latitudine: 11-02S, longitudine: 068-47W, elevație: 235 m

Observații meteo curente

Raportul a fost făcut în urmă cu 14 ore și 15 de minute, la 17:00 UTC
Vânt 6 kt de la Sud/Sud-est
Temperatură 18°C
Umiditate 83%
Presiune 1018 hPa
Vizibilitate de 10 km sau mai mult
Nori fragmentați la o înălțime de 2500 picior
Total acoperit la o înălțime de 8000 picior

METAR: SLCO 261700Z 16006KT 9999 BKN025 OVC080 18/15 Q1018

Ora: 03:15 (07:15 UTC)

Prognoză

Raportul a fost făcut în urmă cu 9 ore și 15 de minute, la 22:00 UTC
Prognoză valabilă de la 27 ora 00 UTC la 27 ora 24 UTC
Vânt kt de la Nord
Vizibilitate de 10 km sau mai mult
Nori fragmentați la o înălțime de 2500 picior
Nori fragmentați la o înălțime de 8000 picior
Devenind
de la 27 ora 12 UTC la 27 ora 14 UTC
Vânt 10 kt de la Sud-est

TAF: SLCO 262200Z 2700/2724 00000KT 9999 BKN025 BKN080 TX22/2719Z TN17/2711Z BECMG 2712/2714 14010KT

Observații și prognoze meteo pentru peste 4.000 de aeroporturi (rapoarte METAR și TAF).

Stațiile disponibile sunt reprezentate pe hartă prin puncte galbene și roșii.

Țineți indicatorul mouse-ului pe punctul dorit pentru a vedea denumirea stației.

Apoi, faceți clic pentru a vedea observațiile și prognozele meteorologice.

Pentru a schimba harta: Pentru mărire, faceți clic pe butoanele verzi cu cruce neagră; pentru micșorare, pe butonul verde cu o liniuță; pentru hărți învecinate, pe săgețile verzi.


METAR-TAF: